Alpine Link — V7SZ7 — position and weather

sailwx.info

Track history (hours):
 
Tides and Currents Weather Stations Pressure Air Temp Water Temp Dewpoint Dewpoint Depression Visibility Wind Speed Wind Dir Waves Ship Positions

Alpine Link

Last reported at 2016-Jul-17 06:18 UTC. Time now 2016-Jul-24 18:29 UTC.
Position N 40°26' W 071°12'.

Length 183 m; draft 11.4 m.

Type: Tanker. MMSI: 538003758.

Date/timePositionNaut miles runAvg speedWind from/ knotsBaromVisibWave heightAir tempDewpointWater temp
2016-Jul-17 06:18N 40°26' W 071°12'2312.7
2016-Jul-17 04:32N 40°48' W 071°17'1212.8
2016-Jul-17 03:33N 40°60' W 071°22'20 0.5
2016-Jul-15 10:06N 41°18' W 071°34'4 6.6
2016-Jul-15 09:33N 41°16' W 071°30'13410.8
2016-Jul-14 21:09N 39°18' W 072°51'813.3
2016-Jul-14 20:33N 39°11' W 072°57'2713.3
2016-Jul-14 18:31N 38°49' W 073°16'1212.8
2016-Jul-14 17:33N 38°38' W 073°24'1312.6
2016-Jul-14 16:31N 38°27' W 073°33'1212.4
2016-Jul-14 15:33N 38°17' W 073°42'1312.2
2016-Jul-14 14:31N 38°06' W 073°50'12211.8
2016-Jul-14 04:07N 36°51' W 075°52'712.6
2016-Jul-14 03:33N 36°57' W 075°58'5911.5
2016-Jul-13 22:28N 37°55' W 076°11'1312.9
2016-Jul-13 21:28N 38°07' W 076°14'4013.0
2016-Jul-13 18:23N 38°46' W 076°25'1112.9
2016-Jul-13 17:33N 38°57' W 076°23'1212.3
2016-Jul-13 16:33N 39°09' W 076°25'1010.2
2016-Jul-13 15:33N 39°16' W 076°34'0 0.5
2016-Jul-13 14:31N 39°16' W 076°34'0 0.0
2016-Jul-13 13:31N 39°16' W 076°34'0 0.0
2016-Jul-13 12:31N 39°16' W 076°34'0 0.0
2016-Jul-13 11:31N 39°16' W 076°34'0 0.0
2016-Jul-13 10:28N 39°16' W 076°34'0 0.0
2016-Jul-13 09:25N 39°16' W 076°34'0 0.0
2016-Jul-13 08:31N 39°16' W 076°34'0 0.0
2016-Jul-13 06:20N 39°16' W 076°34'0 0.0
2016-Jul-13 04:04N 39°16' W 076°34'0 0.0
2016-Jul-13 02:05N 39°16' W 076°34'0 0.0
2016-Jul-13 01:31N 39°16' W 076°34'0 0.0
2016-Jul-13 00:28N 39°16' W 076°34'0 0.0
2016-Jul-12 23:19N 39°16' W 076°34'0 0.0
2016-Jul-12 22:16N 39°16' W 076°34'0 0.0
2016-Jul-12 21:28N 39°16' W 076°34'0 0.0
2016-Jul-12 20:28N 39°16' W 076°34'0 0.0
2016-Jul-12 19:20N 39°16' W 076°34'0 0.0
2016-Jul-12 18:25N 39°16' W 076°34'0 0.0
2016-Jul-12 17:28N 39°16' W 076°34'0 0.0
2016-Jul-12 16:20N 39°16' W 076°34'0 0.4
2016-Jul-12 15:34N 39°16' W 076°34'2 1.8
2016-Jul-12 14:30N 39°15' W 076°33'0 0.1
2016-Jul-12 13:33N 39°15' W 076°33'0 0.0
2016-Jul-12 12:33N 39°15' W 076°33'0 0.0
2016-Jul-12 11:33N 39°15' W 076°33'0 0.1
2016-Jul-12 10:33N 39°14' W 076°33'2 2.0
2016-Jul-12 09:34N 39°13' W 076°31'1110.7
2016-Jul-12 08:33N 39°04' W 076°24'1313.1
2016-Jul-12 07:34N 38°51' W 076°24'1413.8
2016-Jul-12 06:32N 38°37' W 076°26'1312.9
2016-Jul-12 05:33N 38°25' W 076°21'1311.5
2016-Jul-12 04:26N 38°13' W 076°15'1213.5
2016-Jul-12 03:30N 38°00' W 076°12'5212.5
2016-Jul-11 23:22N 37°08' W 076°09'1113.3
2016-Jul-11 22:33N 36°60' W 076°01'10 9.7
2016-Jul-11 21:33N 36°53' W 075°52'15 1.5
2016-Jul-11 11:30N 36°48' W 075°35'0 0.0
2016-Jul-11 10:33N 36°48' W 075°35'0 0.0
2016-Jul-11 06:33N 36°48' W 075°35'230 9.9
2016-Jul-10 07:24N 40°21' W 073°42'1011.3
2016-Jul-10 06:33N 40°28' W 073°51'1010.3
2016-Jul-10 05:34N 40°34' W 074°02'5 4.9
2016-Jul-10 04:33N 40°39' W 074°03'0 0.0
2016-Jul-10 03:30N 40°39' W 074°03'0 0.0
2016-Jul-10 02:33N 40°39' W 074°03'0 0.1
2016-Jul-10 01:33N 40°39' W 074°03'0 0.2
2016-Jul-10 00:33N 40°39' W 074°03'0 0.1
2016-Jul-09 23:33N 40°39' W 074°03'0 0.0
2016-Jul-09 22:33N 40°39' W 074°03'0 0.0
2016-Jul-09 21:33N 40°39' W 074°03'1 0.7
2016-Jul-09 20:34N 40°39' W 074°04'6 6.1
2016-Jul-09 19:34N 40°38' W 074°12'2 0.1
2016-Jul-08 10:32N 40°39' W 074°09'4 4.4
2016-Jul-08 09:32N 40°38' W 074°04'0 0.1
2016-Jul-08 08:25N 40°38' W 074°04'0 0.0
2016-Jul-08 07:19N 40°38' W 074°04'0 0.0
2016-Jul-08 06:31N 40°38' W 074°04'0 0.1
2016-Jul-08 04:31N 40°38' W 074°04'0 0.0
2016-Jul-08 03:31N 40°38' W 074°04'0 0.0
2016-Jul-08 02:31N 40°38' W 074°04'0 0.0
2016-Jul-08 01:28N 40°38' W 074°04'0 0.0
2016-Jul-08 00:19N 40°38' W 074°04'0 0.2
2016-Jul-07 23:16N 40°38' W 074°04'0 0.1
2016-Jul-07 22:22N 40°38' W 074°04'0 0.0
2016-Jul-07 21:22N 40°38' W 074°04'0 0.0
2016-Jul-07 20:19N 40°38' W 074°04'0 0.0
2016-Jul-07 19:31N 40°38' W 074°04'0 0.0
2016-Jul-07 18:31N 40°38' W 074°04'0 0.2
2016-Jul-07 17:22N 40°38' W 074°04'0 0.0
2016-Jul-07 16:25N 40°38' W 074°04'0 0.0
2016-Jul-07 15:33N 40°38' W 074°04'0 0.0
2016-Jul-07 14:33N 40°38' W 074°04'2 1.6
2016-Jul-07 13:33N 40°37' W 074°03'1110.9
2016-Jul-07 12:33N 40°29' W 073°53'6 6.5
2016-Jul-07 11:33N 40°29' W 073°45'4 3.7
2016-Jul-07 10:32N 40°31' W 073°40'0 0.1
2016-Jul-07 09:25N 40°31' W 073°40'0 0.1
2016-Jul-07 08:31N 40°31' W 073°40'  
Track history (hours):
 
Tides and Currents Weather Stations Pressure Air Temp Water Temp Dewpoint Dewpoint Depression Visibility Wind Speed Wind Dir Waves Ship Positions

Alpine Link

Last reported at 2016-Jul-17 06:18 UTC. Time now 2016-Jul-24 18:29 UTC.
Position N 40°26' W 071°12'.

Length 183 m; draft 11.4 m.

Type: Tanker. MMSI: 538003758.

Date/timePositionNaut miles runAvg speedWind from/ knotsBaromVisibWave heightAir tempDewpointWater temp
2016-Jul-17 06:18N 40°26' W 071°12'2312.7
2016-Jul-17 04:32N 40°48' W 071°17'1212.8
2016-Jul-17 03:33N 40°60' W 071°22'20 0.5
2016-Jul-15 10:06N 41°18' W 071°34'4 6.6
2016-Jul-15 09:33N 41°16' W 071°30'13410.8
2016-Jul-14 21:09N 39°18' W 072°51'813.3
2016-Jul-14 20:33N 39°11' W 072°57'2713.3
2016-Jul-14 18:31N 38°49' W 073°16'1212.8
2016-Jul-14 17:33N 38°38' W 073°24'1312.6
2016-Jul-14 16:31N 38°27' W 073°33'1212.4
2016-Jul-14 15:33N 38°17' W 073°42'1312.2
2016-Jul-14 14:31N 38°06' W 073°50'12211.8
2016-Jul-14 04:07N 36°51' W 075°52'712.6
2016-Jul-14 03:33N 36°57' W 075°58'5911.5
2016-Jul-13 22:28N 37°55' W 076°11'1312.9
2016-Jul-13 21:28N 38°07' W 076°14'4013.0
2016-Jul-13 18:23N 38°46' W 076°25'1112.9
2016-Jul-13 17:33N 38°57' W 076°23'1212.3
2016-Jul-13 16:33N 39°09' W 076°25'1010.2
2016-Jul-13 15:33N 39°16' W 076°34'0 0.5
2016-Jul-13 14:31N 39°16' W 076°34'0 0.0
2016-Jul-13 13:31N 39°16' W 076°34'0 0.0
2016-Jul-13 12:31N 39°16' W 076°34'0 0.0
2016-Jul-13 11:31N 39°16' W 076°34'0 0.0
2016-Jul-13 10:28N 39°16' W 076°34'0 0.0
2016-Jul-13 09:25N 39°16' W 076°34'0 0.0
2016-Jul-13 08:31N 39°16' W 076°34'0 0.0
2016-Jul-13 06:20N 39°16' W 076°34'0 0.0
2016-Jul-13 04:04N 39°16' W 076°34'0 0.0
2016-Jul-13 02:05N 39°16' W 076°34'0 0.0
2016-Jul-13 01:31N 39°16' W 076°34'0 0.0
2016-Jul-13 00:28N 39°16' W 076°34'0 0.0
2016-Jul-12 23:19N 39°16' W 076°34'0 0.0
2016-Jul-12 22:16N 39°16' W 076°34'0 0.0
2016-Jul-12 21:28N 39°16' W 076°34'0 0.0
2016-Jul-12 20:28N 39°16' W 076°34'0 0.0
2016-Jul-12 19:20N 39°16' W 076°34'0 0.0
2016-Jul-12 18:25N 39°16' W 076°34'0 0.0
2016-Jul-12 17:28N 39°16' W 076°34'0 0.0
2016-Jul-12 16:20N 39°16' W 076°34'0 0.4
2016-Jul-12 15:34N 39°16' W 076°34'2 1.8
2016-Jul-12 14:30N 39°15' W 076°33'0 0.1
2016-Jul-12 13:33N 39°15' W 076°33'0 0.0
2016-Jul-12 12:33N 39°15' W 076°33'0 0.0
2016-Jul-12 11:33N 39°15' W 076°33'0 0.1
2016-Jul-12 10:33N 39°14' W 076°33'2 2.0
2016-Jul-12 09:34N 39°13' W 076°31'1110.7
2016-Jul-12 08:33N 39°04' W 076°24'1313.1
2016-Jul-12 07:34N 38°51' W 076°24'1413.8
2016-Jul-12 06:32N 38°37' W 076°26'1312.9
2016-Jul-12 05:33N 38°25' W 076°21'1311.5
2016-Jul-12 04:26N 38°13' W 076°15'1213.5
2016-Jul-12 03:30N 38°00' W 076°12'5212.5
2016-Jul-11 23:22N 37°08' W 076°09'1113.3
2016-Jul-11 22:33N 36°60' W 076°01'10 9.7
2016-Jul-11 21:33N 36°53' W 075°52'15 1.5
2016-Jul-11 11:30N 36°48' W 075°35'0 0.0
2016-Jul-11 10:33N 36°48' W 075°35'0 0.0
2016-Jul-11 06:33N 36°48' W 075°35'230 9.9
2016-Jul-10 07:24N 40°21' W 073°42'1011.3
2016-Jul-10 06:33N 40°28' W 073°51'1010.3
2016-Jul-10 05:34N 40°34' W 074°02'5 4.9
2016-Jul-10 04:33N 40°39' W 074°03'0 0.0
2016-Jul-10 03:30N 40°39' W 074°03'0 0.0
2016-Jul-10 02:33N 40°39' W 074°03'0 0.1
2016-Jul-10 01:33N 40°39' W 074°03'0 0.2
2016-Jul-10 00:33N 40°39' W 074°03'0 0.1
2016-Jul-09 23:33N 40°39' W 074°03'0 0.0
2016-Jul-09 22:33N 40°39' W 074°03'0 0.0
2016-Jul-09 21:33N 40°39' W 074°03'1 0.7
2016-Jul-09 20:34N 40°39' W 074°04'6 6.1
2016-Jul-09 19:34N 40°38' W 074°12'2 0.1
2016-Jul-08 10:32N 40°39' W 074°09'4 4.4
2016-Jul-08 09:32N 40°38' W 074°04'0 0.1
2016-Jul-08 08:25N 40°38' W 074°04'0 0.0
2016-Jul-08 07:19N 40°38' W 074°04'0 0.0
2016-Jul-08 06:31N 40°38' W 074°04'0 0.1
2016-Jul-08 04:31N 40°38' W 074°04'0 0.0
2016-Jul-08 03:31N 40°38' W 074°04'0 0.0
2016-Jul-08 02:31N 40°38' W 074°04'0 0.0
2016-Jul-08 01:28N 40°38' W 074°04'0 0.0
2016-Jul-08 00:19N 40°38' W 074°04'0 0.2
2016-Jul-07 23:16N 40°38' W 074°04'0 0.1
2016-Jul-07 22:22N 40°38' W 074°04'0 0.0
2016-Jul-07 21:22N 40°38' W 074°04'0 0.0
2016-Jul-07 20:19N 40°38' W 074°04'0 0.0
2016-Jul-07 19:31N 40°38' W 074°04'0 0.0
2016-Jul-07 18:31N 40°38' W 074°04'0 0.2
2016-Jul-07 17:22N 40°38' W 074°04'0 0.0
2016-Jul-07 16:25N 40°38' W 074°04'0 0.0
2016-Jul-07 15:33N 40°38' W 074°04'0 0.0
2016-Jul-07 14:33N 40°38' W 074°04'2 1.6
2016-Jul-07 13:33N 40°37' W 074°03'1110.9
2016-Jul-07 12:33N 40°29' W 073°53'6 6.5
2016-Jul-07 11:33N 40°29' W 073°45'4 3.7
2016-Jul-07 10:32N 40°31' W 073°40'0 0.1
2016-Jul-07 09:25N 40°31' W 073°40'0 0.1
2016-Jul-07 08:31N 40°31' W 073°40'  

Dump ship's entire track history